Time;durP1;ratioP1;P1;durP2;ratioP2;P2;SDS_P1;SDS_P2;PMS_P1;PMS_P2;Temp;Humidity;BMP_temperature;BMP_pressure;BME280_temperature;BME280_humidity;BME280_pressure;Samples;Min_cycle;Max_cycle;Signal;HPM_P1;HPM_P2
2021/12/13 00:06:22;;;;;;;4.90;1.25;;;;;;;20.13;45.46;100692.91;3953367;32;15723637;-70
2021/12/13 00:08:52;;;;;;;5.97;1.23;;;;;;;20.13;45.46;100692.91;4430057;32;20045;-70
2021/12/13 00:11:22;;;;;;;6.10;1.50;;;;;;;19.97;45.22;100687.00;4430067;32;20378;-70
2021/12/13 00:13:52;;;;;;;6.72;1.23;;;;;;;19.95;45.32;100684.63;4429840;32;20034;-70
2021/12/13 00:16:29;;;;;;;7.28;1.10;;;;;;;19.87;45.64;100674.94;4429607;32;20077;-70
2021/12/13 00:18:59;;;;;;;4.90;1.37;;;;;;;20.02;45.23;100674.81;4431838;32;20379;-70
2021/12/13 00:21:38;;;;;;;5.72;1.48;;;;;;;20.02;45.32;100675.62;4431100;32;20041;-70
2021/12/13 00:24:09;;;;;;;5.05;1.10;;;;;;;20.26;44.72;100675.31;4431577;32;20034;-70
2021/12/13 00:26:39;;;;;;;5.30;1.40;;;;;;;19.82;45.90;100678.50;4429466;32;20379;-70
2021/12/13 00:29:10;;;;;;;6.95;1.60;;;;;;;20.23;45.07;100684.91;4433912;32;20122;-70
2021/12/13 00:31:57;;;;;;;7.68;1.37;;;;;;;19.69;46.18;100680.97;4431144;32;20073;-70
2021/12/13 00:42:20;;;;;;;4.40;0.90;;;;;;;20.66;44.57;100703.72;3982275;32;15022729;-70
2021/12/13 00:44:49;;;;;;;3.20;1.05;;;;;;;20.66;44.57;100703.72;4438736;32;20084;-70
2021/12/13 00:47:23;;;;;;;4.30;1.20;;;;;;;20.13;45.46;100715.75;4435684;32;20406;-70
2021/12/13 00:49:54;;;;;;;4.62;1.15;;;;;;;20.58;44.50;100706.25;4436676;32;20102;-70
2021/12/13 00:52:21;;;;;;;2.50;0.98;;;;;;;20.84;43.79;100706.97;4437742;32;20491;-70
2021/12/13 00:54:47;;;;;;;5.28;0.90;;;;;;;20.49;44.68;100702.81;4434112;32;20300;-70
2021/12/13 01:03:06;;;;;;;5.43;1.10;;;;;;;21.17;43.85;100706.41;3982266;32;15021732;-70
2021/12/13 01:06:11;;;;;;;6.20;1.00;;;;;;;21.17;43.85;100706.41;4436393;32;20080;-70
2021/12/13 01:08:58;;;;;;;;;;;;;;;20.50;44.47;100710.88;4435923;32;20065;-70
2021/12/13 01:12:01;;;;;;;4.32;1.02;;;;;;;20.85;43.99;100704.87;4436066;32;20410;-70
2021/12/13 01:20:16;;;;;;;1.85;0.80;;;;;;;20.70;44.79;100738.56;3981442;32;15022599;-70
2021/12/13 01:22:55;;;;;;;2.35;0.75;;;;;;;20.70;44.79;100738.56;4435340;32;20041;-70
2021/12/13 01:25:47;;;;;;;3.50;0.88;;;;;;;20.35;45.29;100726.59;4435128;32;20122;-70
2021/12/13 01:28:37;;;;;;;4.37;0.90;;;;;;;20.49;45.05;100723.59;4432880;32;20198;-70
2021/12/13 01:33:44;;;;;;;1.90;0.55;;;;;;;20.86;44.85;100712.19;3953923;32;15724493;-70
2021/12/13 01:36:12;;;;;;;2.67;0.80;;;;;;;20.86;44.85;100712.19;4428926;32;20496;-70
2021/12/13 01:38:48;;;;;;;1.95;0.60;;;;;;;20.90;43.95;100710.63;4430710;32;20092;-70
2021/12/13 01:41:20;;;;;;;5.12;0.82;;;;;;;20.46;45.27;100716.03;4431140;32;20107;-70
2021/12/13 01:43:51;;;;;;;2.53;0.88;;;;;;;20.34;45.62;100725.81;4430011;32;20819;-69
2021/12/13 01:46:20;;;;;;;5.10;1.05;;;;;;;20.44;45.58;100720.69;4419133;32;20055;-70
2021/12/13 01:48:47;;;;;;;5.62;0.70;;;;;;;20.44;45.54;100726.41;4433660;32;20697;-70
2021/12/13 01:51:19;;;;;;;2.90;0.85;;;;;;;20.15;46.30;100723.81;4427993;32;20156;-70
2021/12/13 01:53:57;;;;;;;2.05;0.70;;;;;;;20.56;45.36;100717.41;4431139;32;20021;-70
2021/12/13 01:59:05;;;;;;;3.05;0.70;;;;;;;20.31;45.75;100735.37;3985247;32;15024311;-70
2021/12/13 02:01:32;;;;;;;3.95;0.80;;;;;;;20.07;46.50;100723.47;4431792;32;20084;-70
2021/12/13 02:04:04;;;;;;;2.87;0.80;;;;;;;20.09;46.29;100712.28;4433680;32;20064;-70
2021/12/13 02:06:41;;;;;;;3.22;0.60;;;;;;;20.36;45.68;100705.28;4430173;32;20069;-70
2021/12/13 02:11:45;;;;;;;1.37;0.70;;;;;;;20.25;46.00;100717.41;3982785;32;15022289;-70
2021/12/13 02:14:16;;;;;;;2.67;1.17;;;;;;;20.13;46.35;100732.91;4436703;32;20040;-70
2021/12/13 02:19:41;;;;;;;1.90;0.80;;;;;;;20.68;45.78;100721.91;3980743;32;15022755;-69
2021/12/13 02:22:33;;;;;;;2.92;0.70;;;;;;;20.68;45.78;100721.91;4435713;32;20443;-70
2021/12/13 02:27:51;;;;;;;2.28;0.70;;;;;;;21.14;44.81;100742.53;3992638;31;15014852;-70
2021/12/13 02:30:26;;;;;;;2.65;0.70;;;;;;;21.14;44.81;100742.53;4463987;32;20127;-70
2021/12/13 02:32:52;;;;;;;1.27;0.50;;;;;;;20.34;46.14;100750.75;4461449;32;20048;-69
2021/12/13 02:35:22;;;;;;;3.33;0.60;;;;;;;20.46;45.90;100746.72;4461255;32;20612;-70
2021/12/13 02:37:48;;;;;;;1.70;1.00;;;;;;;20.41;45.89;100745.37;4463741;32;20449;-70
2021/12/13 02:40:18;;;;;;;3.17;0.60;;;;;;;20.21;46.35;100724.63;4461474;32;20077;-70
2021/12/13 02:42:45;;;;;;;2.05;0.68;;;;;;;20.65;45.50;100733.59;4463276;32;20030;-70
2021/12/13 02:45:20;;;;;;;0.90;0.50;;;;;;;20.55;45.54;100710.12;4460505;32;20024;-70
2021/12/13 02:47:52;;;;;;;2.62;0.70;;;;;;;20.68;45.54;100715.44;4465095;32;20095;-70
2021/12/13 02:50:29;;;;;;;2.58;0.80;;;;;;;20.31;46.39;100735.37;4464833;32;20040;-70
2021/12/13 02:52:57;;;;;;;1.23;0.88;;;;;;;20.46;46.29;100741.75;4463237;32;20037;-70
2021/12/13 02:55:28;;;;;;;3.67;0.80;;;;;;;19.93;47.48;100730.06;4461584;32;20118;-70
2021/12/13 02:57:57;;;;;;;1.77;0.60;;;;;;;20.30;46.72;100745.25;4460902;32;20127;-70
2021/12/13 03:03:05;;;;;;;2.22;0.75;;;;;;;20.84;46.04;100746.22;3985355;32;15021923;-70
2021/12/13 03:05:37;;;;;;;1.45;0.57;;;;;;;20.84;46.04;100746.22;4434370;32;20029;-70
2021/12/13 03:08:10;;;;;;;1.87;0.70;;;;;;;20.70;46.11;100753.66;4438441;32;20314;-70
2021/12/13 03:10:40;;;;;;;2.45;0.80;;;;;;;20.62;46.31;100772.56;4434283;32;20122;-70
2021/12/13 03:13:06;;;;;;;3.17;0.93;;;;;;;20.50;46.63;100761.56;4436511;32;20084;-70
2021/12/13 03:15:34;;;;;;;3.55;0.65;;;;;;;20.27;47.31;100774.06;4436419;32;20098;-70
2021/12/13 03:24:06;;;;;;;4.55;0.75;;;;;;;20.84;47.07;100774.84;3986717;32;15022807;-69
2021/12/13 03:26:57;;;;;;;1.27;0.70;;;;;;;20.84;47.07;100774.84;4434922;32;20652;-69
2021/12/13 03:32:16;;;;;;;2.05;0.62;;;;;;;20.54;47.66;100768.63;3987483;31;15017759;-70
2021/12/13 03:34:55;;;;;;;1.60;0.60;;;;;;;20.54;47.66;100768.63;4434617;32;20072;-70
2021/12/13 03:37:24;;;;;;;2.40;0.70;;;;;;;20.48;47.15;100766.97;4434995;32;20025;-69
2021/12/13 03:39:54;;;;;;;4.50;0.88;;;;;;;20.48;47.06;100775.56;4428829;32;20103;-69
2021/12/13 03:42:29;;;;;;;4.50;0.62;;;;;;;20.24;47.55;100775.06;4438123;32;20072;-70
2021/12/13 03:44:59;;;;;;;1.20;0.50;;;;;;;20.55;46.99;100773.03;4434067;32;20086;-70
2021/12/13 03:47:35;;;;;;;3.00;0.60;;;;;;;20.52;47.11;100779.00;4432275;32;20072;-70
2021/12/13 03:50:08;;;;;;;3.53;1.17;;;;;;;20.80;46.35;100780.78;4433095;32;20030;-70
2021/12/13 03:52:35;;;;;;;4.55;0.50;;;;;;;20.29;47.55;100774.34;4434593;32;20050;-69
2021/12/13 03:55:03;;;;;;;1.23;0.40;;;;;;;20.31;47.63;100781.12;4434577;32;20034;-69
2021/12/13 03:57:30;;;;;;;6.37;0.60;;;;;;;19.98;48.36;100780.75;4429788;32;20481;-69
2021/12/13 03:59:58;;;;;;;2.10;0.60;;;;;;;20.24;47.71;100787.28;4433109;32;20089;-69
2021/12/13 04:02:29;;;;;;;2.62;0.50;;;;;;;19.95;48.54;100792.41;4434146;32;20079;-69
2021/12/13 04:04:59;;;;;;;3.05;0.70;;;;;;;19.69;49.62;100792.34;4432921;32;20073;-69
2021/12/13 04:07:29;;;;;;;1.17;0.60;;;;;;;19.89;49.17;100798.06;4422563;32;20048;-69
2021/12/13 04:09:58;;;;;;;1.98;0.80;;;;;;;19.89;49.75;100802.97;4431001;32;20034;-69
2021/12/13 04:12:34;;;;;;;3.75;1.10;;;;;;;19.70;50.45;100802.50;4435220;32;20030;-69
2021/12/13 04:15:21;;;;;;;2.20;0.90;;;;;;;20.26;49.23;100818.22;4434288;32;20026;-69
2021/12/13 04:20:37;;;;;;;1.00;0.65;;;;;;;20.67;48.25;100833.97;3982693;32;15022611;-70
2021/12/13 04:23:09;;;;;;;1.37;0.70;;;;;;;20.65;48.36;100833.69;4438653;32;20080;-70
2021/12/13 04:25:41;;;;;;;0.88;0.52;;;;;;;20.73;48.21;100826.22;4439191;32;20109;-70
2021/12/13 04:33:28;;;;;;;1.17;0.60;;;;;;;21.26;47.35;100855.03;3983863;32;15022638;-69
2021/12/13 04:36:00;;;;;;;2.55;0.70;;;;;;;21.26;47.35;100855.03;4434842;32;20995;-69
2021/12/13 04:38:35;;;;;;;2.00;0.55;;;;;;;20.92;48.03;100853.94;4436689;32;21207;-69
2021/12/13 04:41:02;;;;;;;2.05;0.70;;;;;;;21.02;47.80;100863.94;4435503;32;20085;-69
2021/12/13 04:43:28;;;;;;;0.75;0.47;;;;;;;20.69;48.46;100852.19;4436185;32;20112;-69
2021/12/13 04:45:58;;;;;;;0.50;0.40;;;;;;;20.26;49.16;100849.66;4437394;32;20029;-69
2021/12/13 04:48:29;;;;;;;1.25;0.43;;;;;;;20.31;49.39;100854.66;4435015;32;20038;-69
2021/12/13 04:51:19;;;;;;;3.85;0.52;;;;;;;20.76;48.50;100866.03;4435831;32;20173;-69
2021/12/13 04:53:47;;;;;;;1.00;0.40;;;;;;;20.67;48.45;100869.06;4434664;32;20069;-69
2021/12/13 04:56:18;;;;;;;1.00;0.50;;;;;;;20.68;48.44;100875.59;4439481;32;20086;-69
2021/12/13 04:58:48;;;;;;;1.37;0.82;;;;;;;20.74;48.15;100885.00;4436222;32;20044;-69
2021/12/13 05:01:16;;;;;;;1.83;0.50;;;;;;;21.09;47.52;100891.31;4437538;32;20103;-69
2021/12/13 05:03:47;;;;;;;2.33;0.57;;;;;;;21.19;47.20;100898.44;4437757;32;20089;-69
2021/12/13 05:06:20;;;;;;;3.47;0.65;;;;;;;21.24;46.69;100914.87;4437812;32;20037;-69
2021/12/13 05:08:49;;;;;;;2.67;0.50;;;;;;;21.34;46.53;100921.97;4436938;32;20480;-69
2021/12/13 05:11:17;;;;;;;4.25;0.80;;;;;;;21.30;46.47;100922.19;4435616;32;20074;-69
2021/12/13 05:13:53;;;;;;;2.20;0.50;;;;;;;21.29;46.66;100914.13;4437271;32;20069;-69
2021/12/13 05:19:07;;;;;;;11.80;1.45;;;;;;;21.62;45.09;100922.94;3985038;32;15024311;-69
2021/12/13 05:21:38;;;;;;;5.15;1.30;;;;;;;21.62;45.09;100922.94;4431421;32;20021;-69
2021/12/13 05:24:13;;;;;;;19.85;2.05;;;;;;;21.20;45.31;100922.91;4443097;32;20065;-69
2021/12/13 05:34:51;;;;;;;13.30;1.77;;;;;;;21.45;43.87;100891.34;3984305;32;15023413;-69
2021/12/13 05:37:17;;;;;;;14.70;1.60;;;;;;;21.45;43.87;100891.34;4439643;32;20041;-69
2021/12/13 05:40:06;;;;;;;16.05;2.55;;;;;;;20.63;43.76;100884.87;4434640;32;20084;-69
2021/12/13 05:42:44;;;;;;;14.95;2.00;;;;;;;20.95;43.87;100900.81;4437449;32;20107;-69
2021/12/13 05:45:14;;;;;;;11.25;2.08;;;;;;;21.07;43.59;100911.06;4436861;32;20498;-69
2021/12/13 05:47:55;;;;;;;16.02;2.00;;;;;;;21.01;43.61;100902.44;4439505;32;20172;-69
2021/12/13 05:50:34;;;;;;;16.55;2.05;;;;;;;21.32;43.33;100911.03;4435648;32;20077;-69
2021/12/13 05:53:09;;;;;;;12.60;1.98;;;;;;;21.42;43.11;100923.09;4438931;32;20106;-69
2021/12/13 06:01:14;;;;;;;16.67;2.47;;;;;;;22.19;42.45;100939.97;3980648;32;15023747;-69
2021/12/13 06:03:46;;;;;;;19.08;2.30;;;;;;;22.19;42.45;100939.97;4437781;32;20119;-69
2021/12/13 06:06:18;;;;;;;11.20;2.35;;;;;;;21.79;42.88;100943.16;4437220;32;20049;-69
2021/12/13 06:08:48;;;;;;;18.23;2.67;;;;;;;21.79;42.96;100941.06;4430398;32;20069;-69
2021/12/13 06:11:20;;;;;;;16.05;2.60;;;;;;;21.82;42.79;100948.66;4431947;32;20123;-69
2021/12/13 06:19:07;;;;;;;18.98;2.87;;;;;;;21.87;42.43;100956.47;3984066;32;15023096;-68
2021/12/13 06:24:11;;;;;;;17.17;2.45;;;;;;;21.94;42.70;100961.75;3983738;32;15024988;-69
2021/12/13 06:26:38;;;;;;;13.70;2.17;;;;;;;21.94;42.70;100961.75;4431777;32;20073;-70
2021/12/13 06:29:06;;;;;;;18.95;2.40;;;;;;;21.41;43.59;100962.37;4436089;32;20076;-70
2021/12/13 06:31:40;;;;;;;14.60;2.22;;;;;;;21.57;43.31;100969.53;4436790;32;20049;-70
2021/12/13 06:34:09;;;;;;;15.55;2.33;;;;;;;21.62;43.24;100965.91;4436889;32;20134;-70
2021/12/13 06:36:39;;;;;;;13.93;2.33;;;;;;;21.59;43.31;100970.59;4434257;32;20029;-70
2021/12/13 06:39:09;;;;;;;20.17;2.62;;;;;;;21.18;43.95;100969.22;4436833;32;20064;-70
2021/12/13 06:44:29;;;;;;;11.98;1.80;;;;;;;21.84;42.91;100999.72;3983035;32;15022988;-70
2021/12/13 06:49:39;;;;;;;20.42;3.03;;;;;;;21.93;43.38;101019.56;3979335;32;15121417;-70
2021/12/13 06:52:18;;;;;;;16.85;3.45;;;;;;;21.93;43.38;101019.56;4436323;32;20151;-70
2021/12/13 07:00:16;;;;;;;19.67;2.95;;;;;;;21.77;43.10;101023.87;3997555;31;15016231;-70
2021/12/13 07:03:01;;;;;;;14.82;3.42;;;;;;;21.72;43.36;101026.69;4449239;32;20338;-70
2021/12/13 07:08:07;;;;;;;16.58;3.03;;;;;;;21.80;43.41;101022.06;3955055;32;15723418;-70
2021/12/13 07:13:35;;;;;;;17.73;3.53;;;;;;;22.00;42.35;101027.69;3985927;32;15022396;-68
2021/12/13 07:16:12;;;;;;;21.25;3.80;;;;;;;22.00;42.35;101027.69;4430947;32;20034;-68
2021/12/13 07:29:28;;;;;;;14.25;3.05;;;;;;;21.49;43.51;101054.34;3978863;32;15025704;-70
2021/12/13 07:37:56;;;;;;;20.42;3.35;;;;;;;21.41;43.53;101045.41;3978562;32;15022141;-71
2021/12/13 07:48:29;;;;;;;13.73;2.90;;;;;;;20.93;44.44;101046.44;3980170;32;15024325;-71
2021/12/13 07:53:52;;;;;;;15.32;3.08;;;;;;;20.45;45.12;101053.87;3951005;31;15706713;-70
2021/12/13 08:02:10;;;;;;;23.23;4.18;;;;;;;20.13;45.29;101064.37;3967427;32;15022295;-70
2021/12/13 08:07:17;;;;;;;21.15;3.80;;;;;;;20.32;45.69;101077.13;3973201;32;15024360;-70
2021/12/13 08:09:52;;;;;;;17.52;4.62;;;;;;;20.32;45.69;101077.13;4425994;32;20071;-70
2021/12/13 08:15:16;;;;;;;23.48;4.78;;;;;;;20.43;45.70;101102.97;3971168;32;15022433;-70
2021/12/13 08:17:48;;;;;;;15.52;4.85;;;;;;;20.43;45.70;101102.97;4422172;32;21126;-70
2021/12/13 08:23:12;;;;;;;20.25;4.47;;;;;;;20.37;45.82;101110.69;3967582;32;15025205;-70
2021/12/13 08:25:39;;;;;;;20.15;4.90;;;;;;;20.37;45.82;101110.69;4424811;32;20064;-70
2021/12/13 08:28:18;;;;;;;31.17;5.30;;;;;;;20.02;46.34;101095.56;4427234;32;20717;-70
2021/12/13 08:30:49;;;;;;;24.92;4.80;;;;;;;20.00;46.23;101094.50;4431745;32;20088;-70
2021/12/13 08:33:21;;;;;;;19.90;5.32;;;;;;;19.88;46.56;101092.75;4429528;32;20053;-70
2021/12/13 08:44:13;;;;;;;18.67;5.25;;;;;;;20.77;44.72;101116.44;3962234;32;15022660;-70
2021/12/13 09:03:17;;;;;;;15.80;4.37;;;;;;;21.49;42.86;101100.94;3974466;32;15022616;-70
2021/12/13 09:11:43;;;;;;;25.40;4.40;;;;;;;21.16;43.09;101117.75;3972905;32;15022324;-71
2021/12/13 09:14:39;;;;;;;21.85;4.20;;;;;;;20.82;43.44;101134.97;4428821;32;20084;-71
2021/12/13 09:30:50;;;;;;;25.17;5.90;;;;;;;21.83;42.24;101173.69;3946578;32;15723676;-71
2021/12/13 09:33:23;;;;;;;20.17;5.00;;;;;;;21.83;42.24;101173.69;4422838;32;20038;-71
2021/12/13 09:46:37;;;;;;;29.27;6.70;;;;;;;21.58;42.09;101172.37;3967624;32;15022881;-71
2021/12/13 09:49:10;;;;;;;27.27;6.12;;;;;;;21.57;42.30;101167.94;4418577;32;20110;-71
2021/12/13 09:51:45;;;;;;;21.83;5.07;;;;;;;21.62;42.29;101172.16;4421846;32;20131;-72
2021/12/13 09:54:13;;;;;;;19.77;4.55;;;;;;;21.53;41.95;101175.97;4423476;32;20612;-70
2021/12/13 09:56:49;;;;;;;18.45;4.72;;;;;;;21.28;43.02;101187.38;4421386;32;20080;-71
2021/12/13 09:59:22;;;;;;;23.45;4.50;;;;;;;21.42;42.76;101183.66;4420772;32;20135;-71
2021/12/13 10:01:51;;;;;;;19.30;4.75;;;;;;;21.54;42.07;101185.34;4419623;32;20049;-72
2021/12/13 10:04:25;;;;;;;18.77;4.25;;;;;;;21.48;42.19;101196.72;4420728;32;20035;-72
2021/12/13 10:06:56;;;;;;;21.62;4.85;;;;;;;21.65;41.98;101203.44;4414786;32;20053;-72
2021/12/13 10:09:28;;;;;;;17.75;4.53;;;;;;;21.62;41.97;101197.94;4419720;32;20439;-71
2021/12/13 10:12:17;;;;;;;23.00;5.18;;;;;;;21.60;42.09;101200.53;4419470;32;20096;-71
2021/12/13 10:14:49;;;;;;;17.37;4.12;;;;;;;21.74;41.64;101199.66;4417550;32;20254;-72
2021/12/13 10:17:18;;;;;;;28.58;5.07;;;;;;;21.87;41.32;101207.88;4418592;32;20077;-72
2021/12/13 10:19:47;;;;;;;18.20;4.43;;;;;;;21.79;41.68;101203.88;4416894;32;20062;-72
2021/12/13 10:22:17;;;;;;;21.15;4.10;;;;;;;21.78;41.81;101205.16;4419145;32;20053;-72
2021/12/13 10:24:50;;;;;;;21.45;5.90;;;;;;;21.85;41.49;101211.25;4421732;32;20496;-72
2021/12/13 10:27:17;;;;;;;23.38;4.72;;;;;;;21.85;42.04;101213.31;4413698;32;20165;-72
2021/12/13 10:29:48;;;;;;;16.62;4.50;;;;;;;21.91;41.42;101214.16;4421915;32;20145;-72
2021/12/13 10:32:19;;;;;;;24.30;6.35;;;;;;;21.93;41.28;101220.94;4421609;32;20134;-72
2021/12/13 10:34:49;;;;;;;19.10;3.97;;;;;;;22.07;40.80;101219.25;4420518;32;20460;-71
2021/12/13 10:39:59;;;;;;;19.65;3.92;;;;;;;22.51;40.20;101231.13;3971258;32;15024654;-72
2021/12/13 10:42:30;;;;;;;26.90;4.28;;;;;;;22.51;40.20;101231.13;4417798;32;21323;-71
2021/12/13 10:44:58;;;;;;;23.25;4.75;;;;;;;22.24;40.12;101226.72;4421450;32;20165;-71
2021/12/13 10:47:31;;;;;;;19.67;4.25;;;;;;;22.22;40.42;101222.78;4419932;32;20085;-71
2021/12/13 10:49:59;;;;;;;23.38;5.12;;;;;;;22.41;40.02;101229.72;4417664;32;20042;-72
2021/12/13 10:52:31;;;;;;;20.92;4.97;;;;;;;22.20;40.52;101229.03;4420602;32;21149;-71
2021/12/13 10:55:00;;;;;;;22.83;4.57;;;;;;;22.40;40.45;101217.47;4420319;32;20081;-71
2021/12/13 10:57:33;;;;;;;22.95;5.47;;;;;;;22.04;40.68;101226.81;4416636;32;20086;-71
2021/12/13 11:00:00;;;;;;;16.73;4.30;;;;;;;22.00;40.57;101214.75;4421655;32;20522;-71
2021/12/13 11:02:33;;;;;;;22.73;5.10;;;;;;;21.78;41.07;101220.25;4419802;32;20104;-71
2021/12/13 11:05:05;;;;;;;20.02;4.72;;;;;;;22.05;40.59;101214.03;4417767;32;20053;-71
2021/12/13 11:07:31;;;;;;;22.92;5.20;;;;;;;21.93;40.92;101205.84;4417916;32;20048;-71
2021/12/13 11:09:59;;;;;;;25.00;6.60;;;;;;;21.89;41.22;101208.12;4419350;32;20369;-71
2021/12/13 11:12:31;;;;;;;24.77;5.97;;;;;;;22.12;41.05;101207.06;4421224;32;20041;-70
2021/12/13 11:14:59;;;;;;;24.40;7.10;;;;;;;22.17;40.28;101206.31;4417257;32;20443;-70
2021/12/13 11:17:28;;;;;;;30.48;7.45;;;;;;;22.19;40.44;101203.75;4416021;32;20041;-69
2021/12/13 11:19:58;;;;;;;29.60;8.20;;;;;;;22.18;40.38;101202.19;4420267;32;20491;-70
2021/12/13 11:22:28;;;;;;;29.48;7.40;;;;;;;22.24;39.87;101188.69;4421037;32;20041;-69
2021/12/13 11:24:58;;;;;;;31.52;7.78;;;;;;;22.35;40.09;101189.53;4416680;32;20133;-69
2021/12/13 11:27:31;;;;;;;30.92;9.50;;;;;;;22.42;39.54;101196.88;4418141;32;20525;-69
2021/12/13 11:29:59;;;;;;;30.98;9.07;;;;;;;22.57;39.54;101183.19;4422115;32;20041;-71
2021/12/13 11:33:04;;;;;;;30.23;9.10;;;;;;;22.41;39.34;101187.50;4418188;32;20113;-70
2021/12/13 11:36:10;;;;;;;35.63;9.55;;;;;;;22.53;39.17;101189.19;4420774;32;20452;-69
2021/12/13 11:52:49;;;;;;;30.23;8.20;;;;;;;23.13;40.27;101187.97;3984143;32;15023363;-72
2021/12/13 12:07:01;;;;;;;27.42;8.52;;;;;;;22.66;40.99;101180.94;3993478;31;15025515;-72
2021/12/13 12:10:06;;;;;;;26.97;7.40;;;;;;;22.48;41.78;101177.62;4438270;32;20442;-72
2021/12/13 12:15:10;;;;;;;34.72;7.57;;;;;;;22.44;40.89;101165.63;3970575;32;15023231;-72
2021/12/13 12:17:36;;;;;;;22.75;6.87;;;;;;;22.44;40.89;101165.63;4421445;32;20446;-72
2021/12/13 12:20:07;;;;;;;34.58;8.10;;;;;;;22.26;41.62;101175.41;4431692;32;20104;-72
2021/12/13 12:22:53;;;;;;;30.20;8.40;;;;;;;22.21;41.85;101172.50;4420183;32;20144;-72
2021/12/13 12:25:23;;;;;;;29.45;9.00;;;;;;;22.01;42.49;101170.50;4421890;32;20061;-72
2021/12/13 12:27:53;;;;;;;39.80;9.10;;;;;;;22.09;42.80;101168.72;4424458;32;20142;-72
2021/12/13 12:30:26;;;;;;;33.92;9.65;;;;;;;22.17;43.27;101161.25;4417140;32;20476;-72
2021/12/13 12:32:56;;;;;;;34.05;10.25;;;;;;;22.03;43.29;101169.97;4420984;32;20045;-72
2021/12/13 12:35:26;;;;;;;31.33;9.77;;;;;;;22.07;43.45;101167.66;4419975;32;20081;-72
2021/12/13 12:43:53;;;;;;;35.15;9.52;;;;;;;22.46;42.92;101180.25;3984227;32;15022439;-72
2021/12/13 12:46:22;;;;;;;38.72;9.05;;;;;;;22.46;42.92;101180.25;4439469;32;20073;-71
2021/12/13 12:48:52;;;;;;;29.87;8.43;;;;;;;21.96;43.53;101188.41;4438647;32;20382;-70
2021/12/13 12:51:22;;;;;;;27.13;8.98;;;;;;;21.65;43.54;101189.13;4438589;32;20089;-71
2021/12/13 13:02:00;;;;;;;28.23;8.73;;;;;;;21.99;44.32;101181.66;3973951;32;15022928;-70
2021/12/13 13:12:44;;;;;;;32.20;10.48;;;;;;;21.49;45.69;101186.88;3981096;32;15025745;-70
2021/12/13 13:15:14;;;;;;;31.80;9.93;;;;;;;21.49;45.69;101186.88;4436277;32;20075;-70
2021/12/13 13:17:45;;;;;;;30.05;10.27;;;;;;;21.32;46.02;101174.41;4434106;32;20029;-70
2021/12/13 13:20:23;;;;;;;28.50;10.15;;;;;;;21.29;46.30;101180.34;4433089;32;20099;-70
2021/12/13 13:22:51;;;;;;;32.47;10.02;;;;;;;21.26;45.86;101178.53;4434296;32;20475;-70
2021/12/13 13:25:30;;;;;;;35.95;10.25;;;;;;;21.10;46.49;101171.28;4432425;32;20163;-70
2021/12/13 13:28:00;;;;;;;31.33;10.25;;;;;;;20.90;45.78;101185.53;4433108;32;21056;-69
2021/12/13 13:30:41;;;;;;;31.35;10.23;;;;;;;20.79;46.17;101182.53;4434718;32;20072;-69
2021/12/13 13:33:09;;;;;;;33.15;10.27;;;;;;;20.95;46.71;101164.84;4427472;32;20081;-68
2021/12/13 13:35:36;;;;;;;32.63;9.98;;;;;;;20.70;47.60;101156.13;4435171;32;20092;-69
2021/12/13 13:38:05;;;;;;;33.35;10.27;;;;;;;20.49;47.77;101161.03;4433534;32;20133;-70
2021/12/13 13:40:35;;;;;;;31.37;10.50;;;;;;;19.85;48.79;101154.50;4421321;32;20377;-69
2021/12/13 13:43:05;;;;;;;31.42;10.57;;;;;;;20.09;48.43;101160.13;4435825;32;20034;-69
2021/12/13 13:45:37;;;;;;;33.10;11.85;;;;;;;20.26;48.61;101164.06;4436234;32;20106;-68
2021/12/13 13:50:43;;;;;;;28.40;10.27;;;;;;;21.13;47.52;101175.22;3968345;32;15022073;-68
2021/12/13 13:53:21;;;;;;;30.98;10.85;;;;;;;21.13;47.52;101175.22;4421629;32;20161;-68
2021/12/13 14:03:54;;;;;;;23.17;8.50;;;;;;;21.06;47.31;101159.28;3972932;32;15024162;-69
2021/12/13 14:06:30;;;;;;;28.65;9.93;;;;;;;21.06;47.31;101159.28;4426526;32;20088;-69
2021/12/13 14:09:04;;;;;;;35.78;10.20;;;;;;;20.71;47.84;101149.91;4422972;32;20521;-69
2021/12/13 14:11:32;;;;;;;24.70;9.25;;;;;;;20.75;47.67;101149.72;4426417;32;20431;-69
2021/12/13 14:14:00;;;;;;;23.20;8.25;;;;;;;20.54;48.17;101150.97;4427979;32;21137;-69
2021/12/13 14:16:28;;;;;;;23.08;8.23;;;;;;;20.86;47.39;101161.31;4428402;32;20041;-69
2021/12/13 14:18:55;;;;;;;21.42;8.20;;;;;;;20.67;47.43;101160.00;4427403;32;20768;-68
2021/12/13 14:21:26;;;;;;;28.73;8.30;;;;;;;20.66;47.60;101159.22;4427654;32;20061;-69
2021/12/13 14:23:55;;;;;;;21.45;7.10;;;;;;;20.52;47.21;101167.84;4428584;32;20056;-69
2021/12/13 14:26:27;;;;;;;25.58;7.57;;;;;;;20.74;47.88;101166.09;4428964;32;21772;-69
2021/12/13 14:34:12;;;;;;;17.77;6.70;;;;;;;21.06;46.31;101165.00;3964788;32;15022289;-70
2021/12/13 14:42:14;;;;;;;22.77;7.12;;;;;;;21.12;46.67;101157.28;3989080;31;15015424;-69
2021/12/13 14:47:24;;;;;;;23.27;6.87;;;;;;;20.75;47.36;101161.16;3969112;32;15024517;-69
2021/12/13 14:49:53;;;;;;;22.65;6.97;;;;;;;20.82;47.50;101169.31;4429341;32;20044;-69
2021/12/13 14:52:26;;;;;;;18.87;7.47;;;;;;;20.71;47.33;101183.47;4425992;32;20324;-69
2021/12/13 14:54:55;;;;;;;21.05;7.03;;;;;;;20.76;47.50;101186.41;4429244;32;20068;-68
2021/12/13 14:57:24;;;;;;;25.88;8.18;;;;;;;20.71;47.64;101184.25;4429191;32;20103;-69
2021/12/13 14:59:59;;;;;;;21.05;9.50;;;;;;;20.66;47.38;101176.37;4428691;32;20603;-70
2021/12/13 15:02:30;;;;;;;35.28;16.92;;;;;;;20.86;47.36;101175.63;4427652;32;20467;-69
2021/12/13 15:05:01;;;;;;;28.52;14.20;;;;;;;20.80;47.17;101174.75;4428305;32;20167;-70
2021/12/13 15:07:30;;;;;;;18.83;8.90;;;;;;;20.73;47.43;101178.81;4427266;32;20455;-69
2021/12/13 15:10:05;;;;;;;23.60;12.65;;;;;;;20.78;47.44;101180.97;4431966;32;20496;-69
2021/12/13 15:12:38;;;;;;;31.50;14.60;;;;;;;20.64;47.54;101173.22;4428486;32;20127;-68
2021/12/13 15:15:20;;;;;;;28.45;12.77;;;;;;;20.71;47.21;101169.16;4425009;32;20136;-69
2021/12/13 15:17:55;;;;;;;29.67;12.15;;;;;;;20.57;47.22;101176.50;4427804;32;20037;-69
2021/12/13 15:20:26;;;;;;;21.12;8.75;;;;;;;20.51;47.30;101192.00;4425902;32;20099;-69
2021/12/13 15:22:56;;;;;;;25.98;8.13;;;;;;;20.48;47.77;101188.06;4427505;32;20069;-68
2021/12/13 15:25:35;;;;;;;21.27;7.50;;;;;;;20.54;47.68;101194.66;4426613;32;20378;-70
2021/12/13 15:28:03;;;;;;;24.65;7.50;;;;;;;20.46;48.10;101193.47;4424837;32;20060;-70
2021/12/13 15:30:29;;;;;;;25.40;7.47;;;;;;;20.41;48.13;101188.47;4429423;32;20076;-68
2021/12/13 15:32:59;;;;;;;28.45;8.38;;;;;;;20.25;48.52;101196.78;4427335;32;20099;-70
2021/12/13 15:35:31;;;;;;;24.87;8.55;;;;;;;20.47;48.22;101192.22;4427327;32;20109;-69
2021/12/13 15:38:00;;;;;;;14.98;6.47;;;;;;;20.41;48.23;101197.06;4424942;32;20117;-69
2021/12/13 15:45:49;;;;;;;26.50;7.30;;;;;;;21.09;46.76;101206.13;3962811;32;15050301;-70
2021/12/13 15:50:58;;;;;;;17.37;6.03;;;;;;;21.01;46.78;101207.84;3980281;31;15015102;-71
2021/12/13 15:53:25;;;;;;;25.52;11.35;;;;;;;21.01;46.78;101207.84;4414766;32;20034;-70
2021/12/13 15:55:56;;;;;;;22.55;10.95;;;;;;;20.36;47.88;101200.59;4416813;32;20115;-70
2021/12/13 16:01:19;;;;;;;19.23;6.47;;;;;;;20.85;46.87;101214.88;3947914;32;15729431;-70
2021/12/13 16:03:50;;;;;;;19.83;7.07;;;;;;;20.85;46.87;101214.88;4424181;32;20081;-70
2021/12/13 16:06:18;;;;;;;14.60;6.65;;;;;;;20.44;48.34;101223.84;4421979;32;20231;-70
2021/12/13 16:11:53;;;;;;;20.23;7.80;;;;;;;20.82;47.40;101223.66;3991810;32;15023573;-71
2021/12/13 16:19:51;;;;;;;20.35;9.20;;;;;;;19.66;48.11;101227.34;3948623;32;15721484;-70
2021/12/13 16:33:15;;;;;;;22.45;11.23;;;;;;;20.45;47.20;101237.66;3956352;32;15022275;-71
2021/12/13 16:35:44;;;;;;;25.20;12.35;;;;;;;19.99;47.99;101236.56;4403350;32;20060;-71
2021/12/13 16:38:10;;;;;;;20.90;12.95;;;;;;;19.77;48.26;101242.66;4406822;32;20134;-71
2021/12/13 16:40:40;;;;;;;22.92;13.75;;;;;;;19.60;48.79;101240.72;4406076;32;20038;-70